Time;durP1;ratioP1;P1;durP2;ratioP2;P2;SDS_P1;SDS_P2;PMS_P1;PMS_P2;Temp;Humidity;BMP_temperature;BMP_pressure;BME280_temperature;BME280_humidity;BME280_pressure;Samples;Min_cycle;Max_cycle;Signal;HPM_P1;HPM_P2
2021/12/23 00:00:36;;;;;;;3.58;2.85;;;;;;;-15.69;56.86;98749.00;5148350;27;20034;-55
2021/12/23 00:03:03;;;;;;;7.00;3.10;;;;;;;-15.71;57.40;98751.59;5154387;27;20047;-55
2021/12/23 00:05:28;;;;;;;5.68;3.00;;;;;;;-15.73;57.00;98743.28;5154655;27;20038;-56
2021/12/23 00:07:54;;;;;;;6.00;3.00;;;;;;;-15.73;57.49;98745.81;5156051;27;20042;-55
2021/12/23 00:10:20;;;;;;;2.60;2.40;;;;;;;-15.66;57.14;98743.69;5155762;27;20042;-57
2021/12/23 00:12:46;;;;;;;3.55;2.55;;;;;;;-15.58;58.21;98741.53;5154683;27;20046;-55
2021/12/23 00:25:34;;;;;;;3.45;2.53;;;;;;;-15.17;57.95;98745.94;5155412;27;20057;-55
2021/12/23 00:28:00;;;;;;;5.07;2.30;;;;;;;-15.16;57.79;98748.34;5155773;27;20073;-56
2021/12/23 00:30:26;;;;;;;4.95;2.40;;;;;;;-14.99;58.58;98737.19;5153922;27;20042;-55
2021/12/23 00:32:55;;;;;;;2.95;2.17;;;;;;;-14.90;58.38;98746.00;5155813;27;20133;-57
2021/12/23 00:35:21;;;;;;;5.78;2.90;;;;;;;-14.84;58.56;98744.81;5155534;27;20030;-56
2021/12/23 00:37:49;;;;;;;6.25;2.58;;;;;;;-14.83;57.94;98744.69;5154201;27;20519;-56
2021/12/23 00:40:17;;;;;;;3.08;2.75;;;;;;;-14.68;58.16;98743.75;5154674;27;20031;-54
2021/12/23 00:42:43;;;;;;;4.93;2.80;;;;;;;-14.59;57.85;98746.66;5155630;27;20042;-55
2021/12/23 00:45:09;;;;;;;4.18;2.33;;;;;;;-14.69;57.87;98744.66;5155346;27;20563;-56
2021/12/23 00:47:35;;;;;;;4.47;2.83;;;;;;;-14.63;58.31;98743.47;5153898;27;20081;-56
2021/12/23 00:50:02;;;;;;;4.95;3.22;;;;;;;-14.54;58.81;98732.72;5153732;27;20038;-53
2021/12/23 00:52:33;;;;;;;4.38;2.33;;;;;;;-14.49;57.78;98732.44;5155093;27;20050;-55
2021/12/23 00:54:59;;;;;;;4.55;2.58;;;;;;;-14.48;59.17;98739.13;5153805;27;20389;-53
2021/12/23 00:57:30;;;;;;;4.68;2.75;;;;;;;-14.45;57.99;98736.41;5153396;27;20053;-56
2021/12/23 00:59:56;;;;;;;;;;;;;;;-14.46;58.88;98739.88;5153542;27;20103;-54
2021/12/23 01:02:29;;;;;;;7.32;3.58;;;;;;;-14.38;58.88;98744.47;5155167;27;19929;-56
2021/12/23 01:04:56;;;;;;;4.88;2.80;;;;;;;-14.27;59.26;98747.16;5153469;27;20095;-55
2021/12/23 01:07:21;;;;;;;3.30;3.00;;;;;;;-14.22;59.75;98734.97;5155199;27;20159;-55
2021/12/23 01:09:47;;;;;;;5.53;3.03;;;;;;;-14.16;59.25;98733.75;5154035;27;20441;-57
2021/12/23 01:12:17;;;;;;;3.00;2.63;;;;;;;-14.16;58.74;98732.00;5154952;27;20047;-56
2021/12/23 01:14:52;;;;;;;5.03;3.23;;;;;;;-14.25;59.21;98737.69;5153331;27;20046;-56
2021/12/23 01:19:50;;;;;;;7.38;3.10;;;;;;;-14.18;58.47;98731.28;5154212;27;20050;-55
2021/12/23 01:22:16;;;;;;;5.78;3.08;;;;;;;-14.08;58.69;98732.34;5154759;27;20043;-53
2021/12/23 01:24:42;;;;;;;3.40;2.67;;;;;;;-14.11;59.19;98722.38;5154437;27;20034;-53
2021/12/23 01:27:08;;;;;;;3.72;2.85;;;;;;;-13.98;58.66;98735.13;5152935;27;20091;-55
2021/12/23 01:29:34;;;;;;;4.10;2.78;;;;;;;-14.07;59.19;98726.34;5154312;27;20070;-57
2021/12/23 01:32:03;;;;;;;7.05;2.40;;;;;;;-14.04;60.14;98721.03;5152828;27;20039;-55
2021/12/23 01:34:29;;;;;;;3.10;2.67;;;;;;;-14.03;58.91;98712.50;5152889;27;20040;-56
2021/12/23 01:36:57;;;;;;;10.02;3.10;;;;;;;-13.98;59.56;98709.66;5152445;27;20103;-54
2021/12/23 01:39:23;;;;;;;6.30;2.95;;;;;;;-13.93;60.50;98711.91;5154014;27;20401;-55
2021/12/23 01:41:48;;;;;;;5.25;2.80;;;;;;;-13.91;60.73;98702.41;5153758;27;20038;-53
2021/12/23 01:44:14;;;;;;;4.97;3.10;;;;;;;-13.89;59.11;98715.88;5153681;27;20053;-55
2021/12/23 01:46:40;;;;;;;5.07;2.75;;;;;;;-13.96;60.49;98710.38;5153905;27;20059;-55
2021/12/23 01:49:06;;;;;;;4.63;2.75;;;;;;;-13.82;61.68;98717.09;5152203;27;20135;-57
2021/12/23 01:51:32;;;;;;;3.90;2.30;;;;;;;-13.75;60.74;98710.69;5153968;27;20049;-57
2021/12/23 01:53:58;;;;;;;9.07;3.42;;;;;;;-13.73;59.61;98714.78;5153787;27;20034;-57
2021/12/23 01:56:24;;;;;;;8.48;3.88;;;;;;;-13.78;60.44;98711.72;5152284;27;20046;-55
2021/12/23 01:58:50;;;;;;;8.52;3.47;;;;;;;-13.74;59.81;98712.31;5153360;27;20050;-55
2021/12/23 02:01:16;;;;;;;4.47;3.05;;;;;;;-13.71;59.43;98719.75;5152365;27;20059;-54
2021/12/23 02:03:42;;;;;;;7.70;3.30;;;;;;;-13.48;60.51;98710.59;5153644;27;20102;-58
2021/12/23 02:06:09;;;;;;;5.90;3.17;;;;;;;-13.44;59.40;98712.03;5153429;27;20107;-55
2021/12/23 02:08:36;;;;;;;5.70;3.10;;;;;;;-13.51;60.59;98716.72;5152548;27;20122;-56
2021/12/23 02:11:04;;;;;;;8.48;3.30;;;;;;;-13.38;61.01;98715.88;5153400;27;20536;-55
2021/12/23 02:13:50;;;;;;;4.18;2.63;;;;;;;-13.29;60.36;98712.75;5153176;27;20171;-56
2021/12/23 02:16:16;;;;;;;5.35;2.83;;;;;;;-13.18;60.84;98694.94;5153606;27;20043;-56
2021/12/23 02:18:42;;;;;;;11.93;3.63;;;;;;;-12.96;59.46;98711.34;5151558;27;20034;-58
2021/12/23 02:21:08;;;;;;;5.78;3.40;;;;;;;-12.96;60.02;98703.69;5153481;27;20111;-57
2021/12/23 02:23:34;;;;;;;6.93;3.25;;;;;;;-12.88;60.79;98709.88;5151989;27;20522;-58
2021/12/23 02:26:00;;;;;;;10.82;3.60;;;;;;;-12.77;60.54;98713.41;5151780;27;20132;-56
2021/12/23 02:28:27;;;;;;;6.20;3.00;;;;;;;-12.68;59.65;98713.59;5153226;27;20042;-54
2021/12/23 02:30:53;;;;;;;6.93;3.15;;;;;;;-12.68;58.51;98710.22;5152712;27;20519;-55
2021/12/23 02:33:20;;;;;;;3.03;2.60;;;;;;;-12.87;58.92;98706.41;5153438;27;20039;-55
2021/12/23 02:35:46;;;;;;;8.45;3.80;;;;;;;-13.11;60.18;98703.00;5152673;27;20060;-55
2021/12/23 02:38:12;;;;;;;6.32;3.08;;;;;;;-13.18;61.36;98700.03;5153112;27;20070;-58
2021/12/23 02:40:40;;;;;;;5.80;2.92;;;;;;;-13.18;60.64;98702.56;5151683;27;20043;-53
2021/12/23 02:43:26;;;;;;;4.60;2.53;;;;;;;-13.40;60.79;98702.44;5153306;27;20377;-55
2021/12/23 02:45:55;;;;;;;6.03;2.95;;;;;;;-13.12;61.48;98704.72;5117466;27;20039;-53
2021/12/23 02:48:29;;;;;;;6.82;2.85;;;;;;;-13.20;63.13;98704.44;5152870;27;20041;-55
2021/12/23 02:50:56;;;;;;;9.80;3.47;;;;;;;-13.06;61.93;98706.03;5151284;27;20070;-54
2021/12/23 02:53:22;;;;;;;10.30;3.92;;;;;;;-13.00;62.81;98710.72;5152753;27;20057;-55
2021/12/23 02:55:48;;;;;;;8.93;4.88;;;;;;;-12.93;62.34;98706.84;5151438;27;20038;-57
2021/12/23 02:58:14;;;;;;;6.95;3.63;;;;;;;-12.97;61.76;98704.59;5152484;27;20043;-53
2021/12/23 03:00:43;;;;;;;7.65;3.38;;;;;;;-12.87;62.39;98710.69;5151649;27;20039;-56
2021/12/23 03:03:09;;;;;;;7.95;3.25;;;;;;;-12.78;61.97;98712.63;5153096;27;20077;-58
2021/12/23 03:05:34;;;;;;;11.38;3.97;;;;;;;-12.77;61.59;98710.88;5152943;27;20066;-55
2021/12/23 03:08:00;;;;;;;7.47;3.50;;;;;;;-12.79;63.20;98698.22;5152378;27;20042;-58
2021/12/23 03:10:26;;;;;;;5.60;2.70;;;;;;;-12.85;62.16;98696.91;5152760;27;20103;-54
2021/12/23 03:12:52;;;;;;;5.05;3.70;;;;;;;-12.66;62.02;98706.66;5152924;27;20445;-57
2021/12/23 03:15:18;;;;;;;17.45;6.60;;;;;;;-12.49;62.15;98695.25;5152416;27;20035;-55
2021/12/23 03:17:44;;;;;;;24.23;10.38;;;;;;;-12.43;62.65;98691.44;5152756;27;20038;-55
2021/12/23 03:20:10;;;;;;;23.63;9.15;;;;;;;-12.27;63.04;98691.16;5152824;27;20046;-53
2021/12/23 03:34:58;;;;;;;5.33;3.30;;;;;;;-12.31;60.81;98692.31;5155027;27;20146;-55
2021/12/23 03:37:24;;;;;;;9.68;3.22;;;;;;;-12.28;62.33;98682.69;5156799;27;20320;-54
2021/12/23 03:39:53;;;;;;;5.35;3.15;;;;;;;-12.16;62.24;98688.66;5156594;27;20042;-54
2021/12/23 03:42:20;;;;;;;7.47;3.25;;;;;;;-12.14;62.74;98682.50;5156898;27;20438;-56
2021/12/23 03:44:46;;;;;;;7.97;3.05;;;;;;;-12.13;62.29;98688.44;5138192;27;20515;-56
2021/12/23 03:47:12;;;;;;;6.28;3.30;;;;;;;-11.98;62.58;98691.63;5154839;27;20070;-54
2021/12/23 03:49:37;;;;;;;6.93;3.05;;;;;;;-12.04;61.93;98687.75;5156492;27;20118;-55
2021/12/23 03:52:04;;;;;;;7.50;3.55;;;;;;;-12.09;63.15;98691.56;5156743;27;20051;-54
2021/12/23 03:54:29;;;;;;;6.55;3.75;;;;;;;-11.95;61.97;98693.94;5156227;27;20088;-55
2021/12/23 03:56:55;;;;;;;7.15;3.53;;;;;;;-11.96;62.41;98684.66;5137538;27;20074;-55
2021/12/23 03:59:21;;;;;;;7.97;3.88;;;;;;;-12.01;62.62;98681.63;5156165;27;20137;-56
2021/12/23 04:01:47;;;;;;;8.55;3.08;;;;;;;-12.04;62.22;98689.50;5155926;27;20268;-56
2021/12/23 04:04:13;;;;;;;5.18;2.90;;;;;;;-11.97;62.72;98685.56;5154236;27;20039;-57
2021/12/23 04:06:38;;;;;;;9.05;3.22;;;;;;;-11.91;62.44;98680.84;5155818;27;20039;-57
2021/12/23 04:09:04;;;;;;;4.93;3.33;;;;;;;-11.96;61.77;98682.91;5155720;27;20043;-60
2021/12/23 04:11:30;;;;;;;6.28;2.88;;;;;;;-11.96;63.77;98687.22;5155947;27;20137;-57
2021/12/23 04:13:58;;;;;;;8.90;4.22;;;;;;;-11.79;63.41;98679.09;5155619;27;20031;-56
2021/12/23 04:16:24;;;;;;;7.30;3.63;;;;;;;-11.58;62.28;98678.44;5154385;27;20051;-56
2021/12/23 04:18:51;;;;;;;5.95;3.42;;;;;;;-11.56;61.20;98679.91;5155580;27;20038;-57
2021/12/23 04:21:17;;;;;;;6.38;3.47;;;;;;;-11.51;61.36;98682.13;5154455;27;20134;-56
2021/12/23 04:23:43;;;;;;;7.93;3.00;;;;;;;-11.45;61.61;98679.13;5155098;27;20095;-55
2021/12/23 04:26:09;;;;;;;7.32;3.35;;;;;;;-11.54;61.30;98674.69;5155334;27;20047;-56
2021/12/23 04:28:45;;;;;;;8.75;3.83;;;;;;;-11.52;61.15;98680.53;5154130;27;20059;-55
2021/12/23 04:31:16;;;;;;;4.80;2.70;;;;;;;-11.52;61.24;98676.22;5155467;27;20220;-56
2021/12/23 04:33:43;;;;;;;7.18;3.95;;;;;;;-11.57;61.16;98677.47;5155709;27;20416;-56
2021/12/23 04:36:09;;;;;;;6.93;3.38;;;;;;;-11.49;62.03;98672.63;5155095;27;20046;-56
2021/12/23 04:38:37;;;;;;;5.55;3.40;;;;;;;-11.55;60.72;98685.88;5155545;27;20038;-55
2021/12/23 04:41:03;;;;;;;7.70;3.95;;;;;;;-11.58;61.90;98679.22;5154952;27;20046;-51
2021/12/23 04:43:29;;;;;;;7.95;3.65;;;;;;;-11.50;62.07;98683.75;5134358;27;20031;-57
2021/12/23 04:45:55;;;;;;;8.25;3.78;;;;;;;-11.53;61.12;98692.50;5145097;27;20050;-56
2021/12/23 04:48:20;;;;;;;7.82;3.35;;;;;;;-11.59;61.38;98695.50;5155347;27;20035;-58
2021/12/23 04:50:46;;;;;;;10.38;3.75;;;;;;;-11.58;61.32;98691.22;5154523;27;20041;-56
2021/12/23 04:53:12;;;;;;;6.50;3.08;;;;;;;-11.58;61.81;98694.56;5154926;27;20404;-56
2021/12/23 04:55:38;;;;;;;6.13;3.67;;;;;;;-11.64;62.16;98696.78;5154597;27;20408;-59
2021/12/23 04:58:04;;;;;;;8.25;3.80;;;;;;;-11.68;62.48;98699.53;5154832;27;20152;-55
2021/12/23 05:00:29;;;;;;;8.00;2.95;;;;;;;-11.67;61.64;98701.19;5154364;27;20098;-56
2021/12/23 05:02:55;;;;;;;6.90;3.50;;;;;;;-11.67;62.02;98706.31;5153697;27;20080;-57
2021/12/23 05:05:21;;;;;;;10.02;3.88;;;;;;;-11.57;62.03;98710.72;5154817;27;20065;-55
2021/12/23 05:07:48;;;;;;;7.28;3.33;;;;;;;-11.48;61.46;98718.53;5153854;27;20373;-60
2021/12/23 05:10:16;;;;;;;5.07;2.80;;;;;;;-11.36;62.28;98721.91;5154925;27;20065;-57
2021/12/23 05:12:45;;;;;;;6.85;3.78;;;;;;;-11.33;61.89;98719.13;5154631;27;20519;-55
2021/12/23 05:15:14;;;;;;;8.00;4.10;;;;;;;-11.45;61.18;98720.84;5154897;27;20072;-57
2021/12/23 05:17:41;;;;;;;5.68;3.35;;;;;;;-11.35;62.45;98715.88;5154315;27;20662;-60
2021/12/23 05:20:08;;;;;;;5.60;3.38;;;;;;;-11.25;62.60;98724.47;5153278;27;20087;-56
2021/12/23 05:22:34;;;;;;;8.88;4.40;;;;;;;-11.10;61.95;98719.13;5154709;27;20051;-57
2021/12/23 05:25:00;;;;;;;5.90;3.40;;;;;;;-11.07;61.24;98716.34;5152814;27;20129;-55
2021/12/23 05:27:26;;;;;;;10.02;3.95;;;;;;;-11.05;61.40;98714.50;5153181;27;20057;-58
2021/12/23 05:29:52;;;;;;;8.88;3.17;;;;;;;-11.05;61.71;98720.41;5154061;27;20043;-58
2021/12/23 05:32:18;;;;;;;10.60;3.97;;;;;;;-11.00;61.25;98710.66;5154341;27;20043;-57
2021/12/23 05:34:44;;;;;;;12.23;3.72;;;;;;;-10.95;61.41;98720.53;5153893;27;20047;-57
2021/12/23 05:37:10;;;;;;;8.95;4.32;;;;;;;-10.91;61.50;98715.97;5154235;27;20045;-58
2021/12/23 05:39:36;;;;;;;8.40;3.38;;;;;;;-10.93;61.42;98718.66;5147448;27;20039;-58
2021/12/23 05:42:02;;;;;;;7.80;3.78;;;;;;;-10.95;61.96;98722.28;5152039;27;20039;-57
2021/12/23 05:44:27;;;;;;;6.88;3.78;;;;;;;-10.95;61.99;98720.53;5150574;27;20049;-58
2021/12/23 05:46:53;;;;;;;6.00;4.20;;;;;;;-11.00;61.25;98718.31;5149824;27;20046;-57
2021/12/23 05:49:19;;;;;;;9.75;3.45;;;;;;;-10.97;61.82;98717.25;5151050;27;20088;-58
2021/12/23 05:51:45;;;;;;;7.85;3.55;;;;;;;-10.85;62.25;98723.19;5149221;27;20618;-55
2021/12/23 05:54:11;;;;;;;6.43;3.70;;;;;;;-10.76;61.53;98718.19;5149858;27;20038;-58
2021/12/23 05:56:36;;;;;;;5.70;3.85;;;;;;;-10.80;61.49;98716.78;5151719;27;20038;-55
2021/12/23 05:59:02;;;;;;;9.13;4.15;;;;;;;-10.73;61.51;98717.13;5150440;27;20058;-57
2021/12/23 06:01:28;;;;;;;7.40;3.83;;;;;;;-10.67;61.98;98708.97;5149922;27;20046;-56
2021/12/23 06:03:54;;;;;;;9.30;4.15;;;;;;;-10.82;61.40;98707.63;5151482;27;20038;-56
2021/12/23 06:06:20;;;;;;;8.35;4.18;;;;;;;-10.80;62.01;98716.78;5152547;27;20066;-56
2021/12/23 06:08:46;;;;;;;8.45;3.70;;;;;;;-10.90;62.08;98712.50;5150726;27;20425;-55
2021/12/23 06:11:11;;;;;;;8.13;4.18;;;;;;;-10.92;61.36;98710.03;5152203;27;20054;-59
2021/12/23 06:13:38;;;;;;;10.88;4.13;;;;;;;-10.89;61.74;98714.94;5149407;27;20030;-56
2021/12/23 06:16:03;;;;;;;9.73;4.20;;;;;;;-10.87;62.63;98722.50;5148731;27;20051;-56
2021/12/23 06:18:29;;;;;;;7.07;3.55;;;;;;;-10.83;62.42;98721.31;5151383;27;20113;-57
2021/12/23 06:20:55;;;;;;;8.27;4.68;;;;;;;-10.86;62.87;98719.00;5140255;27;20050;-60
2021/12/23 06:23:21;;;;;;;9.00;4.28;;;;;;;-10.82;62.48;98731.47;5149456;27;20066;-58
2021/12/23 06:25:47;;;;;;;7.22;3.92;;;;;;;-10.72;62.45;98723.06;5150506;27;20046;-57
2021/12/23 06:28:12;;;;;;;9.57;3.67;;;;;;;-10.68;62.30;98722.69;5148903;27;20539;-58
2021/12/23 06:30:39;;;;;;;8.13;4.20;;;;;;;-10.55;62.01;98725.13;5150888;27;20450;-56
2021/12/23 06:33:06;;;;;;;11.55;4.68;;;;;;;-10.56;62.12;98721.75;5149719;27;20488;-57
2021/12/23 06:35:32;;;;;;;9.85;4.25;;;;;;;-10.52;61.53;98724.91;5151130;27;20031;-57
2021/12/23 06:38:03;;;;;;;7.18;3.65;;;;;;;-10.51;61.97;98723.94;5148563;27;20107;-57
2021/12/23 06:40:29;;;;;;;8.73;4.63;;;;;;;-10.47;61.85;98715.09;5128288;27;20043;-53
2021/12/23 06:42:55;;;;;;;10.15;4.78;;;;;;;-10.35;61.96;98723.53;5146544;27;20571;-55
2021/12/23 06:45:20;;;;;;;11.25;4.25;;;;;;;-10.39;61.67;98730.66;5145799;27;20127;-52
2021/12/23 06:47:46;;;;;;;10.32;5.10;;;;;;;-10.31;62.65;98722.38;5150533;27;20138;-55
2021/12/23 06:50:13;;;;;;;9.60;4.35;;;;;;;-10.33;61.20;98725.06;5149156;27;20079;-56
2021/12/23 06:52:39;;;;;;;11.05;4.82;;;;;;;-10.22;61.41;98723.38;5130099;27;20563;-56
2021/12/23 06:55:11;;;;;;;12.68;4.53;;;;;;;-10.17;62.46;98726.41;5148858;27;20051;-54
2021/12/23 06:57:38;;;;;;;11.02;4.97;;;;;;;-10.05;61.66;98717.72;5131039;27;20043;-52
2021/12/23 07:00:06;;;;;;;9.10;3.72;;;;;;;-9.99;61.92;98719.78;5150094;27;20049;-55
2021/12/23 07:02:34;;;;;;;9.57;4.13;;;;;;;-9.95;60.60;98718.59;5151056;27;20091;-55
2021/12/23 07:05:00;;;;;;;9.45;4.03;;;;;;;-9.86;61.87;98720.41;5149243;27;20050;-57
2021/12/23 07:07:27;;;;;;;10.38;4.40;;;;;;;-9.85;61.97;98716.94;5150018;27;20071;-53
2021/12/23 07:09:54;;;;;;;12.18;5.20;;;;;;;-9.80;61.46;98716.53;5153589;27;20046;-55
2021/12/23 07:12:21;;;;;;;8.15;4.72;;;;;;;-9.77;61.67;98712.91;5153613;27;20465;-54
2021/12/23 07:14:47;;;;;;;9.60;4.78;;;;;;;-9.89;61.48;98710.41;5153792;27;20134;-57
2021/12/23 07:17:16;;;;;;;13.65;5.13;;;;;;;-9.97;61.80;98692.28;5154437;27;20491;-57
2021/12/23 07:19:42;;;;;;;12.07;4.70;;;;;;;-9.78;61.33;98716.44;5152739;27;20445;-57
2021/12/23 07:22:08;;;;;;;10.60;4.90;;;;;;;-9.89;61.48;98707.03;5153316;27;20047;-55
2021/12/23 07:24:34;;;;;;;8.40;4.95;;;;;;;-9.99;61.21;98711.28;5155207;27;20042;-56
2021/12/23 07:27:00;;;;;;;12.50;5.55;;;;;;;-10.10;61.75;98715.50;5151780;27;20078;-56
2021/12/23 07:29:26;;;;;;;14.50;6.13;;;;;;;-10.10;61.64;98715.50;5144721;27;20069;-57
2021/12/23 07:31:53;;;;;;;12.88;5.28;;;;;;;-10.13;62.09;98714.94;5136741;27;20223;-56
2021/12/23 07:34:18;;;;;;;14.05;5.13;;;;;;;-10.25;61.84;98714.19;5138462;27;20510;-57
2021/12/23 07:36:44;;;;;;;11.90;5.35;;;;;;;-10.32;62.28;98713.09;5153686;27;20074;-56
2021/12/23 07:39:10;;;;;;;13.80;5.38;;;;;;;-10.37;61.86;98718.56;5152660;27;20129;-56
2021/12/23 07:41:36;;;;;;;9.68;4.88;;;;;;;-10.40;62.37;98708.56;5153191;27;20091;-53
2021/12/23 07:44:05;;;;;;;12.32;5.15;;;;;;;-10.38;62.38;98711.81;5150504;27;20072;-56
2021/12/23 07:46:38;;;;;;;11.38;6.20;;;;;;;-10.28;62.05;98711.91;5153014;27;20495;-57
2021/12/23 07:49:05;;;;;;;10.65;4.88;;;;;;;-10.33;62.65;98717.38;5152943;27;20050;-55
2021/12/23 07:51:33;;;;;;;16.23;5.68;;;;;;;-10.31;62.46;98715.50;5113438;27;20051;-57
2021/12/23 07:54:05;;;;;;;16.25;6.30;;;;;;;-10.24;62.54;98720.91;5139456;27;20030;-57
2021/12/23 07:56:31;;;;;;;13.05;5.53;;;;;;;-10.27;61.94;98710.13;5150896;27;20102;-60
2021/12/23 07:58:57;;;;;;;12.00;5.30;;;;;;;-10.23;62.50;98707.19;5151630;27;20508;-57
2021/12/23 08:01:23;;;;;;;12.07;4.65;;;;;;;-10.25;61.74;98703.94;5154353;27;20046;-58
2021/12/23 08:03:48;;;;;;;10.50;5.35;;;;;;;-10.28;61.89;98696.53;5152898;27;20038;-58
2021/12/23 08:06:15;;;;;;;13.02;5.22;;;;;;;-10.23;62.26;98706.34;5153464;27;20472;-60
2021/12/23 08:08:40;;;;;;;10.00;4.65;;;;;;;-10.22;62.33;98705.44;5154099;27;20437;-57
2021/12/23 08:11:06;;;;;;;9.95;4.90;;;;;;;-10.27;61.88;98715.25;5154175;27;20071;-58
2021/12/23 08:13:32;;;;;;;9.32;5.63;;;;;;;-10.29;61.91;98705.16;5134637;27;20482;-55
2021/12/23 08:16:00;;;;;;;9.15;5.38;;;;;;;-10.28;61.83;98703.41;5154067;27;20179;-57
2021/12/23 08:18:27;;;;;;;11.05;4.65;;;;;;;-10.34;62.06;98705.50;5153606;27;20449;-55
2021/12/23 08:20:53;;;;;;;9.93;5.05;;;;;;;-10.38;62.05;98693.88;5151492;27;20039;-57
2021/12/23 08:23:19;;;;;;;10.98;4.95;;;;;;;-10.38;61.88;98710.97;5152785;27;20371;-58
2021/12/23 08:25:45;;;;;;;10.85;4.55;;;;;;;-10.19;62.07;98710.31;5148966;27;20091;-55
2021/12/23 08:28:15;;;;;;;10.82;5.05;;;;;;;-10.06;61.81;98716.91;5152441;27;20066;-55
2021/12/23 08:30:41;;;;;;;8.25;4.65;;;;;;;-10.06;61.63;98711.78;5152717;27;20590;-56
2021/12/23 08:33:08;;;;;;;9.10;4.95;;;;;;;-10.01;60.93;98700.34;5151800;27;20038;-57
2021/12/23 08:35:35;;;;;;;10.07;4.68;;;;;;;-9.86;61.49;98720.41;5152599;27;20070;-56
2021/12/23 08:38:01;;;;;;;8.35;4.60;;;;;;;-9.87;60.58;98710.28;5152721;27;20642;-55
2021/12/23 08:40:29;;;;;;;11.23;5.45;;;;;;;-9.86;61.17;98712.72;5151825;27;20038;-56
2021/12/23 08:42:56;;;;;;;13.98;5.00;;;;;;;-9.85;60.84;98722.06;5151477;27;20338;-57
2021/12/23 08:45:23;;;;;;;10.07;5.15;;;;;;;-9.90;61.26;98726.75;5151746;27;20066;-54
2021/12/23 08:47:51;;;;;;;9.43;4.85;;;;;;;-9.73;61.23;98724.56;5152640;27;20201;-53
2021/12/23 08:50:18;;;;;;;10.95;5.07;;;;;;;-9.67;61.29;98722.31;5152867;27;20049;-54
2021/12/23 08:52:45;;;;;;;9.52;4.78;;;;;;;-9.70;60.80;98720.00;5152785;27;20099;-53
2021/12/23 08:55:11;;;;;;;10.60;4.95;;;;;;;-9.57;61.69;98713.88;5150810;27;20039;-57
2021/12/23 08:57:38;;;;;;;10.02;4.75;;;;;;;-9.44;60.61;98717.03;5151172;27;20043;-58
2021/12/23 09:00:07;;;;;;;10.05;5.03;;;;;;;-9.34;60.16;98711.97;5149575;27;20047;-53
2021/12/23 09:02:33;;;;;;;9.65;5.40;;;;;;;-9.35;59.86;98713.72;5149461;27;20068;-56
2021/12/23 09:04:58;;;;;;;13.00;5.32;;;;;;;-9.35;60.23;98713.72;5150296;27;20035;-56
2021/12/23 09:07:25;;;;;;;9.82;4.47;;;;;;;-9.31;60.38;98707.38;5152586;27;20039;-55
2021/12/23 09:09:51;;;;;;;9.13;4.63;;;;;;;-9.27;60.75;98706.19;5098069;27;20133;-54
2021/12/23 09:12:18;;;;;;;8.88;4.63;;;;;;;-9.28;59.27;98696.88;5151183;27;20133;-56
2021/12/23 09:14:44;;;;;;;9.27;4.50;;;;;;;-9.21;59.45;98703.09;5148908;27;20126;-55
2021/12/23 09:17:10;;;;;;;6.75;4.07;;;;;;;-9.17;59.54;98698.53;5150603;27;20133;-54
2021/12/23 09:19:36;;;;;;;7.28;3.90;;;;;;;-9.03;59.51;98703.31;5149793;27;20056;-55
2021/12/23 09:22:02;;;;;;;9.60;3.92;;;;;;;-9.05;60.08;98694.94;5151984;27;20492;-54
2021/12/23 09:24:28;;;;;;;6.03;4.03;;;;;;;-8.92;60.21;98698.06;5149770;27;20065;-54
2021/12/23 09:27:08;;;;;;;9.55;4.32;;;;;;;-8.80;58.93;98696.22;5150047;27;20492;-57
2021/12/23 09:32:42;;;;;;;9.07;4.00;;;;;;;-8.75;58.88;98681.22;5150885;27;20428;-56
2021/12/23 09:32:42;;;;;;;10.32;4.18;;;;;;;-8.55;58.70;98684.66;5148970;27;20396;-56
2021/12/23 09:35:08;;;;;;;9.98;3.97;;;;;;;-8.56;59.36;98675.31;5131027;27;20849;-56
2021/12/23 09:37:35;;;;;;;7.57;4.13;;;;;;;-8.51;58.31;98682.63;5149112;27;20413;-56
2021/12/23 09:40:02;;;;;;;6.78;3.75;;;;;;;-8.49;58.55;98673.03;5147797;27;20050;-55
2021/12/23 09:42:32;;;;;;;5.80;3.92;;;;;;;-8.52;58.68;98681.81;5151227;27;20047;-54
2021/12/23 09:45:01;;;;;;;12.15;4.45;;;;;;;-8.51;58.13;98678.28;5148799;27;20043;-56
2021/12/23 09:47:31;;;;;;;6.95;4.00;;;;;;;-8.51;59.18;98673.16;5148742;27;20047;-54
2021/12/23 09:49:59;;;;;;;8.48;3.70;;;;;;;-8.42;57.90;98676.66;5149504;27;20035;-59
2021/12/23 09:52:28;;;;;;;12.25;4.90;;;;;;;-8.44;59.08;98673.44;5132039;27;20062;-55
2021/12/23 09:54:55;;;;;;;9.05;3.85;;;;;;;-8.37;58.15;98676.25;5149071;27;20030;-57
2021/12/23 09:57:22;;;;;;;9.35;4.80;;;;;;;-8.31;58.95;98668.81;5144278;27;20336;-53
2021/12/23 09:59:48;;;;;;;9.45;4.35;;;;;;;-8.30;58.23;98672.19;5149023;27;20066;-55
2021/12/23 10:02:15;;;;;;;7.35;3.58;;;;;;;-8.20;57.18;98662.72;5148497;27;20411;-55
2021/12/23 10:04:40;;;;;;;12.60;4.55;;;;;;;-8.05;57.37;98666.50;5148470;27;20046;-56
2021/12/23 10:07:06;;;;;;;8.05;4.05;;;;;;;-7.97;58.37;98665.00;5149201;27;20412;-54
2021/12/23 10:13:08;;;;;;;6.00;3.90;;;;;;;-7.84;57.45;98668.91;5142579;27;20091;-56
2021/12/23 10:31:45;;;;;;;7.40;5.13;;;;;;;-7.72;57.24;98646.41;5149046;27;20053;-58
2021/12/23 10:39:43;;;;;;;6.20;3.53;;;;;;;-7.59;56.33;98643.53;5147997;27;20035;-57
2021/12/23 10:42:14;;;;;;;6.72;3.45;;;;;;;-7.57;57.07;98645.00;5146606;27;20043;-57
2021/12/23 10:44:47;;;;;;;5.47;3.35;;;;;;;-7.69;57.16;98640.19;5148279;27;20070;-57
2021/12/23 10:50:50;;;;;;;5.63;3.50;;;;;;;-7.82;57.67;98645.63;5148351;27;20046;-59
2021/12/23 10:53:57;;;;;;;8.95;4.63;;;;;;;-7.74;57.33;98643.16;5149988;27;20381;-56
2021/12/23 10:59:14;;;;;;;11.35;4.28;;;;;;;-7.65;57.69;98641.50;5147757;27;20058;-56
2021/12/23 11:02:19;;;;;;;10.15;4.30;;;;;;;-7.64;56.46;98638.00;5148677;27;20111;-55
2021/12/23 11:04:53;;;;;;;9.13;4.25;;;;;;;-7.50;57.79;98636.72;5149422;27;20137;-55
2021/12/23 11:07:26;;;;;;;8.77;3.88;;;;;;;-7.45;58.40;98639.69;5145059;27;20138;-57
2021/12/23 11:43:57;;;;;;;8.02;3.65;;;;;;;-8.25;58.56;98603.97;4917030;29;20047;-53
2021/12/23 11:46:27;;;;;;;10.20;4.45;;;;;;;-8.28;58.96;98611.97;4930385;29;20067;-58
2021/12/23 11:48:55;;;;;;;11.57;4.22;;;;;;;-8.39;58.87;98604.44;4932186;29;20176;-54
2021/12/23 11:51:29;;;;;;;6.90;3.33;;;;;;;-8.38;60.27;98606.03;4909737;29;20056;-56
2021/12/23 11:53:56;;;;;;;7.00;3.40;;;;;;;-8.48;59.33;98611.19;4945471;28;20078;-56
2021/12/23 11:56:22;;;;;;;6.95;3.38;;;;;;;-8.50;59.25;98599.41;4931037;29;20122;-55
2021/12/23 11:58:49;;;;;;;5.45;3.08;;;;;;;-8.43;59.59;98605.66;4931535;29;20054;-57
2021/12/23 12:01:21;;;;;;;7.28;3.67;;;;;;;-8.67;60.11;98600.13;4933138;29;20047;-54
2021/12/23 12:04:03;;;;;;;6.68;3.33;;;;;;;-8.80;61.03;98610.63;4894548;29;20108;-56
2021/12/23 12:06:46;;;;;;;4.40;2.63;;;;;;;-8.75;61.41;98613.63;4891722;29;20507;-56
2021/12/23 12:09:20;;;;;;;8.05;3.30;;;;;;;-8.76;60.36;98605.09;4913614;29;20076;-57
2021/12/23 12:12:05;;;;;;;6.10;3.25;;;;;;;-8.77;61.29;98607.81;4920200;29;20039;-55
2021/12/23 12:14:40;;;;;;;6.68;3.67;;;;;;;-8.77;62.14;98610.38;4916867;29;20040;-56
2021/12/23 12:17:25;;;;;;;6.60;3.42;;;;;;;-8.74;61.81;98608.34;4893554;29;20056;-57
2021/12/23 12:20:03;;;;;;;8.10;3.97;;;;;;;-8.82;61.00;98603.06;4927048;29;20055;-56
2021/12/23 12:22:52;;;;;;;4.50;3.38;;;;;;;-8.82;60.66;98603.06;4943801;29;20047;-59
2021/12/23 12:25:24;;;;;;;5.70;3.65;;;;;;;-8.92;60.54;98605.63;4926410;29;20052;-58
2021/12/23 12:27:56;;;;;;;7.00;3.60;;;;;;;-9.01;61.50;98605.59;4914966;29;20048;-56
2021/12/23 12:31:14;;;;;;;4.53;3.00;;;;;;;-9.02;62.46;98604.78;4915225;29;20036;-55
2021/12/23 12:33:44;;;;;;;4.90;2.80;;;;;;;-9.24;61.95;98603.25;4914431;29;20060;-56
2021/12/23 12:36:13;;;;;;;5.03;2.97;;;;;;;-9.30;62.48;98592.69;4912676;29;20071;-55
2021/12/23 12:39:02;;;;;;;7.13;3.72;;;;;;;-9.35;62.22;98599.97;4930150;29;20091;-55
2021/12/23 12:41:32;;;;;;;7.97;3.13;;;;;;;-9.37;62.09;98607.81;4935910;29;20055;-59
2021/12/23 12:44:03;;;;;;;4.10;2.97;;;;;;;-9.39;63.12;98599.41;4947882;29;20050;-58
2021/12/23 12:46:54;;;;;;;3.95;2.65;;;;;;;-9.37;62.30;98595.78;4930374;29;20044;-53
2021/12/23 12:49:29;;;;;;;4.95;2.58;;;;;;;-9.38;62.28;98595.94;4930571;29;20160;-57
2021/12/23 12:52:27;;;;;;;4.70;2.83;;;;;;;-9.30;62.54;98595.25;4931792;29;20048;-56
2021/12/23 12:54:57;;;;;;;3.50;2.42;;;;;;;-9.34;61.87;98591.34;4929979;29;20111;-58
2021/12/23 12:57:39;;;;;;;3.90;2.70;;;;;;;-9.39;63.35;98592.53;4928995;29;20138;-59
2021/12/23 13:00:31;;;;;;;6.82;2.95;;;;;;;-9.33;62.99;98593.75;4933583;29;20040;-58
2021/12/23 13:03:02;;;;;;;6.70;2.80;;;;;;;-9.33;62.99;98592.97;4948547;29;20083;-56